createdAt,value
2023-04-17T00:00:16.899Z,4.21
2023-04-17T00:02:45.089Z,4.22
2023-04-17T00:05:11.928Z,4.22
2023-04-17T00:07:38.867Z,4.24
2023-04-17T00:10:07.776Z,4.18
2023-04-17T00:12:34.864Z,4.13
2023-04-17T00:15:01.825Z,4.14
2023-04-17T00:17:28.359Z,4.16
2023-04-17T00:19:54.855Z,4.10
2023-04-17T00:22:21.343Z,4.15
2023-04-17T00:24:48.092Z,4.14
2023-04-17T00:27:14.529Z,4.18
2023-04-17T00:29:40.983Z,4.09
2023-04-17T00:32:07.662Z,4.08
2023-04-17T00:34:34.206Z,4.09
2023-04-17T00:37:00.716Z,4.06
2023-04-17T00:39:27.376Z,4.05
2023-04-17T00:41:54.441Z,4.07
2023-04-17T00:44:20.911Z,4.10
2023-04-17T00:46:47.688Z,4.04
2023-04-17T00:49:14.231Z,4.02
2023-04-17T00:51:40.898Z,4.08
2023-04-17T00:54:08.214Z,4.04
2023-04-17T00:56:34.828Z,4.08
2023-04-17T00:59:03.947Z,4.02
2023-04-17T01:01:30.653Z,4.06
2023-04-17T01:03:59.868Z,4.03
2023-04-17T01:07:13.191Z,4.01
2023-04-17T01:09:39.875Z,4.04
2023-04-17T01:12:20.147Z,3.97
2023-04-17T01:14:46.981Z,3.94
2023-04-17T01:17:16.055Z,3.97
2023-04-17T01:19:42.584Z,3.91
2023-04-17T01:22:09.079Z,3.85
2023-04-17T01:24:37.143Z,3.90
2023-04-17T01:27:04.587Z,3.88
2023-04-17T01:29:31.087Z,3.85
2023-04-17T01:31:57.561Z,3.89
2023-04-17T01:34:24.001Z,3.81
2023-04-17T01:36:50.442Z,3.82
2023-04-17T01:39:17.638Z,3.83
2023-04-17T01:41:44.435Z,3.80
2023-04-17T01:44:11.084Z,3.85
2023-04-17T01:46:37.742Z,3.83
2023-04-17T01:49:04.409Z,3.83
2023-04-17T01:51:31.187Z,3.78
2023-04-17T01:53:57.596Z,3.74
2023-04-17T01:56:24.184Z,3.74
2023-04-17T01:58:51.654Z,3.70
2023-04-17T02:01:18.238Z,3.66
2023-04-17T02:03:44.843Z,3.62
2023-04-17T02:06:12.059Z,3.61
2023-04-17T02:08:38.541Z,3.63
2023-04-17T02:11:05.122Z,3.61
2023-04-17T02:13:31.819Z,3.61
2023-04-17T02:15:58.419Z,3.60
2023-04-17T02:18:24.900Z,3.50
2023-04-17T02:20:51.478Z,3.49
2023-04-17T02:23:17.980Z,3.44
2023-04-17T02:25:44.418Z,3.35
2023-04-17T02:28:10.931Z,3.29
2023-04-17T02:30:37.718Z,3.31
2023-04-17T02:33:04.190Z,3.33
2023-04-17T02:35:31.836Z,3.30
2023-04-17T02:37:58.379Z,3.28
2023-04-17T02:40:24.840Z,3.31
2023-04-17T02:42:51.306Z,3.31
2023-04-17T02:45:18.129Z,3.19
2023-04-17T02:47:44.599Z,3.29
2023-04-17T02:50:12.012Z,3.22
2023-04-17T02:52:39.758Z,3.17
2023-04-17T02:55:07.052Z,3.13
2023-04-17T02:57:33.797Z,3.09
2023-04-17T03:00:01.563Z,3.09
2023-04-17T03:02:30.647Z,3.07
2023-04-17T03:04:57.314Z,3.01
2023-04-17T03:07:23.823Z,3.07
2023-04-17T03:09:53.522Z,3.04
2023-04-17T03:12:20.348Z,2.98
2023-04-17T03:14:46.826Z,3.02
2023-04-17T03:17:14.159Z,2.98
2023-04-17T03:19:40.649Z,3.02
2023-04-17T03:22:07.165Z,2.99
2023-04-17T03:24:33.698Z,2.84
2023-04-17T03:27:00.961Z,2.90
2023-04-17T03:29:27.613Z,2.93
2023-04-17T03:31:54.095Z,2.88
2023-04-17T03:34:21.943Z,2.89
2023-04-17T03:36:48.811Z,2.95
2023-04-17T03:39:15.754Z,2.93
2023-04-17T03:41:42.480Z,2.90
2023-04-17T03:44:10.032Z,2.93
2023-04-17T03:46:37.612Z,2.93
2023-04-17T03:49:04.577Z,2.87
2023-04-17T03:51:32.014Z,2.83
2023-04-17T03:53:58.526Z,2.80
2023-04-17T03:56:25.742Z,2.81
2023-04-17T03:58:52.169Z,2.75
2023-04-17T04:01:18.682Z,2.76
2023-04-17T04:03:45.640Z,2.70
2023-04-17T04:06:12.342Z,2.76
2023-04-17T04:08:38.889Z,2.72
2023-04-17T04:11:05.505Z,2.69
2023-04-17T04:13:32.545Z,2.76
2023-04-17T04:15:59.099Z,2.73
2023-04-17T04:18:25.812Z,2.72
2023-04-17T04:20:52.259Z,2.76
2023-04-17T04:23:20.914Z,2.79
2023-04-17T04:25:49.576Z,2.81
2023-04-17T04:28:17.684Z,2.78
2023-04-17T04:30:50.336Z,2.76
2023-04-17T04:33:20.846Z,2.75
2023-04-17T04:35:48.919Z,2.79
2023-04-17T04:38:17.160Z,2.74
2023-04-17T04:40:50.045Z,2.78
2023-04-17T04:43:16.710Z,2.82
2023-04-17T04:45:43.352Z,2.83
2023-04-17T04:48:09.845Z,2.85
2023-04-17T04:50:36.396Z,2.90
2023-04-17T04:53:02.907Z,2.83
2023-04-17T04:55:30.572Z,2.85
2023-04-17T04:57:57.550Z,2.86
2023-04-17T05:00:24.789Z,2.92
2023-04-17T05:02:51.382Z,2.96
2023-04-17T05:05:17.916Z,2.98
2023-04-17T05:07:44.688Z,3.01
2023-04-17T05:10:11.203Z,3.03
2023-04-17T05:12:37.810Z,3.00
2023-04-17T05:15:05.758Z,2.99
2023-04-17T05:17:32.301Z,2.91
2023-04-17T05:19:59.001Z,2.95
2023-04-17T05:22:27.529Z,2.84
2023-04-17T05:24:54.065Z,2.76
2023-04-17T05:27:21.085Z,2.89
2023-04-17T05:29:47.824Z,2.96
2023-04-17T05:32:14.283Z,2.90
2023-04-17T05:34:41.002Z,2.84
2023-04-17T05:37:07.462Z,2.91
2023-04-17T05:39:34.364Z,2.89
2023-04-17T05:42:01.555Z,2.99
2023-04-17T05:44:28.137Z,3.00
2023-04-17T05:46:57.311Z,2.89
2023-04-17T05:49:23.829Z,2.85
2023-04-17T05:51:54.099Z,2.90
2023-04-17T05:54:20.791Z,2.96
2023-04-17T05:56:47.477Z,2.98
2023-04-17T05:59:14.136Z,2.98
2023-04-17T06:01:41.006Z,2.93
2023-04-17T06:04:08.309Z,3.03
2023-04-17T06:06:35.011Z,2.89
2023-04-17T06:09:01.494Z,2.86
2023-04-17T06:11:28.059Z,2.98
2023-04-17T06:13:54.531Z,2.86
2023-04-17T06:16:21.787Z,2.89
2023-04-17T06:18:48.461Z,2.91
2023-04-17T06:21:15.212Z,2.89
2023-04-17T06:23:41.662Z,3.05
2023-04-17T06:26:08.457Z,2.90
2023-04-17T06:28:34.896Z,3.11
2023-04-17T06:31:01.461Z,3.12
2023-04-17T06:33:27.945Z,3.16
2023-04-17T06:35:54.369Z,3.24
2023-04-17T06:38:20.866Z,2.99
2023-04-17T06:40:47.721Z,2.97
2023-04-17T06:43:17.310Z,3.09
2023-04-17T06:45:43.935Z,3.20
2023-04-17T06:48:10.380Z,3.36
2023-04-17T06:50:37.352Z,3.43
2023-04-17T06:53:03.789Z,3.42
2023-04-17T06:55:30.376Z,3.58
2023-04-17T06:57:56.848Z,3.73
2023-04-17T07:00:23.384Z,3.67
2023-04-17T07:02:50.838Z,3.74
2023-04-17T07:05:17.597Z,4.02
2023-04-17T07:07:43.992Z,3.99
2023-04-17T07:10:10.687Z,3.82
2023-04-17T07:12:37.432Z,3.99
2023-04-17T07:15:04.136Z,3.92
2023-04-17T07:17:30.875Z,3.70
2023-04-17T07:19:57.405Z,3.69
2023-04-17T07:22:25.260Z,3.81
2023-04-17T07:24:53.267Z,3.75
2023-04-17T07:27:19.929Z,3.85
2023-04-17T07:29:52.783Z,3.85
2023-04-17T07:32:19.354Z,3.90
2023-04-17T07:34:46.029Z,3.91
2023-04-17T07:37:12.465Z,4.07
2023-04-17T07:39:39.017Z,4.03
2023-04-17T07:42:08.761Z,3.99
2023-04-17T07:44:35.553Z,3.94
2023-04-17T07:47:02.155Z,3.76
2023-04-17T07:49:28.794Z,3.82
2023-04-17T07:51:55.708Z,3.96
2023-04-17T07:54:22.157Z,3.85
2023-04-17T07:56:49.442Z,3.82
2023-04-17T07:59:19.088Z,3.73
2023-04-17T08:01:45.733Z,3.83
2023-04-17T08:04:12.500Z,3.93
2023-04-17T08:06:39.198Z,3.81
2023-04-17T08:09:05.850Z,3.91
2023-04-17T08:11:40.020Z,3.86
2023-04-17T08:14:12.665Z,3.76
2023-04-17T08:16:39.240Z,3.97
2023-04-17T08:19:05.768Z,3.93
2023-04-17T08:21:32.744Z,3.95
2023-04-17T08:23:59.271Z,3.99
2023-04-17T08:26:25.746Z,4.04
2023-04-17T08:28:53.649Z,4.06
2023-04-17T08:31:20.423Z,4.05
2023-04-17T08:33:47.007Z,4.05
2023-04-17T08:36:13.524Z,4.11
2023-04-17T08:38:40.900Z,4.23
2023-04-17T08:41:13.380Z,4.28
2023-04-17T08:43:40.234Z,4.28
2023-04-17T08:46:07.547Z,4.54
2023-04-17T08:48:34.210Z,4.84
2023-04-17T08:51:03.025Z,4.98
2023-04-17T08:53:29.547Z,5.04
2023-04-17T08:55:58.949Z,4.82
2023-04-17T08:58:28.662Z,5.32
2023-04-17T09:00:55.917Z,5.39
2023-04-17T09:03:22.650Z,4.90
2023-04-17T09:05:49.196Z,4.69
2023-04-17T09:08:20.450Z,4.74
2023-04-17T09:10:48.739Z,4.63
2023-04-17T09:13:20.147Z,4.61
2023-04-17T09:16:02.931Z,4.66
2023-04-17T09:18:31.284Z,4.73
2023-04-17T09:21:02.109Z,4.99
2023-04-17T09:23:30.305Z,5.50
2023-04-17T09:26:07.307Z,5.53
2023-04-17T09:28:39.532Z,5.42
2023-04-17T09:31:24.805Z,5.11
2023-04-17T09:34:07.465Z,4.98
2023-04-17T09:36:36.913Z,4.96
2023-04-17T09:39:16.162Z,4.83
2023-04-17T09:41:42.693Z,5.11
2023-04-17T09:44:12.422Z,5.58
2023-04-17T09:46:45.727Z,5.56
2023-04-17T09:49:19.043Z,5.45
2023-04-17T09:51:46.689Z,5.58
2023-04-17T09:54:14.960Z,5.79
2023-04-17T09:56:42.166Z,5.59
2023-04-17T09:59:09.891Z,6.41
2023-04-17T10:01:37.927Z,7.70
2023-04-17T10:04:05.360Z,7.09
2023-04-17T10:06:33.233Z,6.72
2023-04-17T10:09:00.231Z,6.53
2023-04-17T10:11:34.091Z,6.42
2023-04-17T10:14:12.362Z,6.45
2023-04-17T10:16:41.027Z,6.26
2023-04-17T10:19:27.652Z,6.19
2023-04-17T10:22:15.872Z,6.15
2023-04-17T10:24:43.095Z,6.07
2023-04-17T10:27:41.940Z,6.00
2023-04-17T10:30:12.601Z,5.94
2023-04-17T10:32:41.399Z,6.95
2023-04-17T10:35:17.170Z,7.58
2023-04-17T10:37:53.328Z,8.00
2023-04-17T10:40:23.777Z,8.48
2023-04-17T10:43:17.783Z,8.33
2023-04-17T10:46:13.175Z,8.83
2023-04-17T10:48:53.080Z,8.62
2023-04-17T10:51:27.062Z,9.25
2023-04-17T10:54:01.033Z,9.64
2023-04-17T10:56:30.528Z,8.97
2023-04-17T10:59:05.432Z,8.44
2023-04-17T11:01:47.989Z,7.83
2023-04-17T11:04:26.733Z,7.96
2023-04-17T11:06:54.206Z,7.70
2023-04-17T11:09:22.186Z,8.00
2023-04-17T11:11:48.696Z,8.11
2023-04-17T11:14:20.511Z,7.32
2023-04-17T11:16:49.159Z,7.20
2023-04-17T11:19:21.365Z,7.27
2023-04-17T11:21:49.915Z,8.14
2023-04-17T11:24:30.049Z,8.60
2023-04-17T11:26:59.733Z,7.65
2023-04-17T11:29:27.130Z,7.60
2023-04-17T11:31:56.275Z,7.70
2023-04-17T11:34:24.942Z,7.71
2023-04-17T11:37:01.406Z,8.46
2023-04-17T11:39:29.844Z,8.82
2023-04-17T11:41:57.222Z,8.53
2023-04-17T11:44:24.482Z,8.97
2023-04-17T11:47:00.837Z,8.59
2023-04-17T11:49:31.757Z,8.38
2023-04-17T11:52:02.264Z,7.59
2023-04-17T11:54:30.622Z,7.45
2023-04-17T11:57:11.324Z,7.22
2023-04-17T11:59:39.757Z,7.03
2023-04-17T12:02:07.947Z,7.08
2023-04-17T12:04:36.471Z,6.55
2023-04-17T12:07:07.738Z,6.44
2023-04-17T12:09:35.488Z,6.71
2023-04-17T12:12:05.512Z,6.65
2023-04-17T12:14:32.397Z,7.03
2023-04-17T12:16:59.359Z,7.03
2023-04-17T12:19:29.224Z,6.92
2023-04-17T12:21:56.670Z,6.73
2023-04-17T12:24:24.886Z,6.55
2023-04-17T12:26:52.460Z,6.55
2023-04-17T12:29:26.570Z,6.32
2023-04-17T12:31:59.448Z,6.21
2023-04-17T12:34:27.691Z,6.20
2023-04-17T12:36:54.583Z,6.00
2023-04-17T12:39:21.413Z,5.64
2023-04-17T12:41:48.126Z,5.66
2023-04-17T12:44:15.068Z,5.31
2023-04-17T12:46:42.156Z,5.60
2023-04-17T12:49:08.923Z,5.52
2023-04-17T12:51:38.062Z,5.39
2023-04-17T12:54:04.756Z,5.41
2023-04-17T12:56:31.733Z,5.39
2023-04-17T12:59:00.615Z,5.35
2023-04-17T13:01:28.706Z,5.42
2023-04-17T13:03:55.390Z,5.42
2023-04-17T13:06:22.066Z,5.27
2023-04-17T13:08:48.601Z,5.08
2023-04-17T13:11:15.022Z,5.24
2023-04-17T13:13:41.782Z,5.39
2023-04-17T13:16:09.883Z,5.54
2023-04-17T13:18:37.525Z,5.45
2023-04-17T13:21:04.267Z,5.41
2023-04-17T13:23:31.006Z,5.51
2023-04-17T13:25:57.498Z,5.40
2023-04-17T13:28:23.948Z,5.55
2023-04-17T13:30:50.402Z,5.60
2023-04-17T13:33:16.886Z,5.53
2023-04-17T13:35:43.349Z,5.47
2023-04-17T13:38:09.991Z,5.37
2023-04-17T13:40:38.728Z,5.49
2023-04-17T13:43:06.733Z,5.32
2023-04-17T13:45:33.284Z,5.36
2023-04-17T13:48:00.401Z,5.10
2023-04-17T13:50:27.121Z,5.11
2023-04-17T13:52:53.764Z,5.23
2023-04-17T13:55:20.488Z,5.22
2023-04-17T13:57:46.979Z,5.12
2023-04-17T14:00:14.168Z,5.12
2023-04-17T14:02:40.871Z,5.16
2023-04-17T14:05:07.845Z,5.02
2023-04-17T14:07:34.407Z,4.86
2023-04-17T14:10:00.935Z,4.89
2023-04-17T14:12:27.558Z,4.88
2023-04-17T14:14:54.287Z,4.86
2023-04-17T14:17:21.657Z,4.79
2023-04-17T14:19:48.218Z,4.65
2023-04-17T14:22:14.695Z,4.72
2023-04-17T14:24:41.493Z,4.73
2023-04-17T14:27:08.524Z,4.79
2023-04-17T14:29:35.377Z,4.70
2023-04-17T14:32:01.843Z,4.72
2023-04-17T14:34:28.723Z,4.78
2023-04-17T14:36:56.854Z,4.85
2023-04-17T14:39:24.640Z,4.86
2023-04-17T14:41:51.115Z,4.79
2023-04-17T14:44:17.738Z,4.71
2023-04-17T14:46:44.562Z,4.67
2023-04-17T14:49:11.350Z,4.54
2023-04-17T14:51:38.052Z,4.55
2023-04-17T14:54:05.076Z,4.64
2023-04-17T14:56:31.547Z,4.67
2023-04-17T14:58:57.987Z,4.66
2023-04-17T15:01:24.550Z,4.51
2023-04-17T15:03:51.442Z,4.50
2023-04-17T15:06:18.852Z,4.54
2023-04-17T15:08:46.162Z,4.61
2023-04-17T15:11:12.961Z,4.56
2023-04-17T15:13:40.414Z,4.54
2023-04-17T15:16:09.516Z,4.49
2023-04-17T15:18:36.278Z,4.29
2023-04-17T15:21:02.752Z,4.30
2023-04-17T15:23:29.884Z,4.29
2023-04-17T15:25:57.852Z,4.25
2023-04-17T15:28:25.237Z,4.25
2023-04-17T15:30:51.758Z,4.10
2023-04-17T15:33:18.325Z,4.12
2023-04-17T15:35:44.939Z,3.99
2023-04-17T15:38:12.191Z,4.04
2023-04-17T15:40:38.715Z,4.01
2023-04-17T15:43:05.330Z,4.02
2023-04-17T15:50:48.676Z,3.53
2023-04-17T15:53:15.188Z,3.51
2023-04-17T15:55:41.702Z,3.39
2023-04-17T15:58:08.356Z,3.35
2023-04-17T16:00:34.819Z,3.30
2023-04-17T16:03:01.424Z,3.37
2023-04-17T16:05:29.730Z,3.36
2023-04-17T16:07:56.152Z,3.38
2023-04-17T16:10:22.620Z,3.30
2023-04-17T16:12:49.175Z,3.27
2023-04-17T16:15:17.266Z,3.26
2023-04-17T16:17:45.500Z,3.43
2023-04-17T16:20:12.791Z,3.53
2023-04-17T16:22:39.264Z,3.62
2023-04-17T16:25:06.722Z,3.60
2023-04-17T16:27:33.358Z,3.64
2023-04-17T16:29:59.948Z,3.59
2023-04-17T16:32:27.464Z,3.52
2023-04-17T16:34:54.188Z,3.57
2023-04-17T16:37:20.688Z,3.55
2023-04-17T16:39:47.322Z,3.58
2023-04-17T16:42:14.483Z,3.60
2023-04-17T16:44:40.993Z,3.59
2023-04-17T16:47:13.438Z,3.58
2023-04-17T16:49:41.050Z,3.57
2023-04-17T16:52:07.687Z,3.60
2023-04-17T16:54:34.258Z,3.58
2023-04-17T16:57:00.852Z,3.55
2023-04-17T16:59:27.282Z,3.59
2023-04-17T17:01:53.955Z,3.61
2023-04-17T17:04:20.586Z,3.51
2023-04-17T17:06:47.130Z,3.61
2023-04-17T17:09:13.889Z,3.64
2023-04-17T17:11:40.746Z,3.60
2023-04-17T17:14:07.296Z,3.65
2023-04-17T17:16:33.854Z,3.67
2023-04-17T17:19:00.573Z,3.61
2023-04-17T17:21:28.081Z,3.65
2023-04-17T17:23:54.533Z,3.69
2023-04-17T17:26:21.028Z,3.71
2023-04-17T17:28:51.121Z,3.73
2023-04-17T17:31:18.151Z,3.67
2023-04-17T17:33:45.196Z,3.70
2023-04-17T17:36:12.407Z,3.69
2023-04-17T17:38:38.982Z,3.71
2023-04-17T17:41:05.759Z,3.68
2023-04-17T17:43:32.350Z,3.71
2023-04-17T17:45:58.898Z,3.74
2023-04-17T17:48:25.829Z,3.74
2023-04-17T17:50:57.125Z,3.72
2023-04-17T17:53:26.384Z,3.71
2023-04-17T17:55:55.003Z,3.68
2023-04-17T17:58:21.974Z,3.66
2023-04-17T18:00:49.272Z,3.69
2023-04-17T18:03:16.727Z,3.77
2023-04-17T18:05:44.309Z,3.74
2023-04-17T18:08:10.807Z,3.71
2023-04-17T18:10:37.384Z,3.69
2023-04-17T18:13:03.884Z,3.62
2023-04-17T18:15:30.395Z,3.65
2023-04-17T18:17:57.029Z,3.70
2023-04-17T18:20:23.743Z,3.73
2023-04-17T18:22:51.528Z,3.72
2023-04-17T18:25:18.234Z,3.65
2023-04-17T18:27:45.328Z,3.67
2023-04-17T18:30:12.317Z,3.70
2023-04-17T18:32:38.893Z,3.65
2023-04-17T18:35:06.088Z,3.68
2023-04-17T18:37:32.914Z,3.70
2023-04-17T18:39:59.530Z,3.64
2023-04-17T18:42:26.007Z,3.61
2023-04-17T18:44:52.452Z,3.59
2023-04-17T18:47:18.912Z,3.63
2023-04-17T18:49:45.377Z,3.59
2023-04-17T18:52:11.990Z,3.57
2023-04-17T18:54:38.884Z,3.52
2023-04-17T18:57:05.403Z,3.53
2023-04-17T18:59:31.920Z,3.44
2023-04-17T19:01:58.560Z,3.46
2023-04-17T19:04:25.093Z,3.47
2023-04-17T19:06:51.537Z,3.50
2023-04-17T19:09:18.067Z,3.51
2023-04-17T19:11:44.529Z,3.46
2023-04-17T19:14:11.094Z,3.45
2023-04-17T19:16:37.905Z,3.55
2023-04-17T19:19:05.780Z,3.52
2023-04-17T19:21:32.775Z,3.49
2023-04-17T19:23:59.271Z,3.47
2023-04-17T19:26:25.867Z,3.50
2023-04-17T19:28:52.424Z,3.46
2023-04-17T19:31:18.967Z,3.48
2023-04-17T19:33:45.482Z,3.43
2023-04-17T19:36:12.089Z,3.43
2023-04-17T19:38:38.632Z,3.42
2023-04-17T19:41:17.350Z,3.38
2023-04-17T19:43:51.210Z,3.37
2023-04-17T19:46:19.501Z,3.36
2023-04-17T19:48:46.857Z,3.31
2023-04-17T19:51:14.528Z,3.31
2023-04-17T19:53:42.587Z,3.25
2023-04-17T19:56:10.452Z,3.28
2023-04-17T19:58:38.040Z,3.20
2023-04-17T20:01:04.707Z,3.23
2023-04-17T20:03:32.338Z,3.25
2023-04-17T20:05:59.318Z,3.22
2023-04-17T20:08:26.370Z,3.22
2023-04-17T20:10:52.816Z,3.20
2023-04-17T20:13:19.301Z,3.21
2023-04-17T20:15:45.772Z,3.20
2023-04-17T20:18:12.292Z,3.19
2023-04-17T20:20:39.190Z,3.18
2023-04-17T20:23:05.936Z,3.11
2023-04-17T20:25:32.393Z,3.17
2023-04-17T20:27:58.888Z,3.13
2023-04-17T20:30:25.532Z,3.13
2023-04-17T20:32:52.099Z,3.18
2023-04-17T20:35:20.901Z,3.17
2023-04-17T20:37:47.547Z,3.21
2023-04-17T20:40:14.367Z,3.22
2023-04-17T20:42:42.164Z,3.27
2023-04-17T20:45:09.774Z,3.31
2023-04-17T20:47:37.682Z,3.15
2023-04-17T20:50:07.660Z,3.10
2023-04-17T20:52:34.544Z,3.11
2023-04-17T20:55:01.060Z,3.14
2023-04-17T20:57:28.628Z,3.14
2023-04-17T20:59:55.057Z,3.11
2023-04-17T21:02:22.040Z,3.20
2023-04-17T21:04:48.948Z,3.21
2023-04-17T21:07:16.008Z,3.21
2023-04-17T21:09:42.592Z,3.16
2023-04-17T21:12:09.287Z,3.24
2023-04-17T21:14:36.640Z,3.19
2023-04-17T21:17:03.141Z,3.16
2023-04-17T21:19:30.826Z,3.18
2023-04-17T21:21:58.341Z,3.27
2023-04-17T21:24:25.292Z,3.15
2023-04-17T21:26:53.317Z,3.18
2023-04-17T21:29:19.794Z,3.14
2023-04-17T21:31:46.375Z,3.12
2023-04-17T21:34:13.109Z,3.11
2023-04-17T21:36:39.689Z,3.11
2023-04-17T21:39:07.137Z,3.11
2023-04-17T21:41:33.733Z,3.17
2023-04-17T21:44:02.468Z,3.17
2023-04-17T21:46:29.421Z,3.22
2023-04-17T21:48:56.221Z,3.14
2023-04-17T21:51:23.213Z,3.16
2023-04-17T21:53:49.794Z,3.11
2023-04-17T21:56:16.268Z,3.11
2023-04-17T21:58:42.706Z,3.05
2023-04-17T22:01:09.227Z,3.13
2023-04-17T22:03:35.748Z,3.14
2023-04-17T22:06:02.257Z,3.09
2023-04-17T22:08:28.806Z,3.09
2023-04-17T22:10:55.370Z,3.07
2023-04-17T22:13:21.806Z,3.10
2023-04-17T22:15:48.777Z,3.01
2023-04-17T22:18:15.865Z,3.03
2023-04-17T22:20:42.642Z,3.00
2023-04-17T22:23:09.110Z,2.98
2023-04-17T22:25:36.206Z,3.01
2023-04-17T22:28:02.752Z,2.91
2023-04-17T22:30:29.202Z,2.90
2023-04-17T22:32:57.285Z,2.95
2023-04-17T22:35:23.856Z,2.90
2023-04-17T22:37:50.370Z,2.78
2023-04-17T22:40:16.937Z,2.85
2023-04-17T22:42:43.435Z,2.80
2023-04-17T22:45:10.047Z,2.84
2023-04-17T22:47:36.511Z,2.87
2023-04-17T22:50:03.393Z,2.93
2023-04-17T22:52:29.900Z,2.93
2023-04-17T22:54:56.414Z,2.88
2023-04-17T22:57:22.863Z,2.86
2023-04-17T22:59:49.381Z,2.94
2023-04-17T23:02:16.137Z,2.91
2023-04-17T23:04:42.717Z,2.93
2023-04-17T23:07:09.204Z,2.88
2023-04-17T23:09:35.671Z,2.83
2023-04-17T23:12:02.249Z,2.84
2023-04-17T23:14:28.715Z,2.87
2023-04-17T23:16:55.179Z,2.85
2023-04-17T23:19:22.489Z,2.80
2023-04-17T23:21:49.091Z,2.77
2023-04-17T23:24:15.671Z,2.78
2023-04-17T23:26:42.225Z,2.76
2023-04-17T23:29:08.732Z,2.73
2023-04-17T23:31:37.128Z,2.77
2023-04-17T23:34:03.600Z,2.74
2023-04-17T23:36:30.580Z,2.74
2023-04-17T23:38:57.009Z,2.76
2023-04-17T23:41:23.701Z,2.75
2023-04-17T23:43:51.298Z,2.77
2023-04-17T23:46:18.495Z,2.75
2023-04-17T23:48:44.956Z,2.82
2023-04-17T23:51:11.491Z,2.80
2023-04-17T23:53:37.965Z,2.79
2023-04-17T23:56:04.526Z,2.78
2023-04-17T23:58:30.948Z,2.81
